sensor_id;sensor_type;location;lat;lon;timestamp;P1;durP1;ratioP1;P2;durP2;ratioP2
5054;SDS011;13829;48.990;8.346;2023-01-16T00:01:51;6.23;;;1.40;;
5054;SDS011;13829;48.990;8.346;2023-01-16T00:04:20;2.60;;;1.47;;
5054;SDS011;13829;48.990;8.346;2023-01-16T00:06:47;5.57;;;1.60;;
5054;SDS011;13829;48.990;8.346;2023-01-16T00:09:16;2.43;;;1.10;;
5054;SDS011;13829;48.990;8.346;2023-01-16T00:11:44;3.43;;;1.07;;
5054;SDS011;13829;48.990;8.346;2023-01-16T00:14:11;3.20;;;1.03;;
5054;SDS011;13829;48.990;8.346;2023-01-16T00:16:38;3.70;;;1.20;;
5054;SDS011;13829;48.990;8.346;2023-01-16T00:19:05;2.60;;;1.23;;
5054;SDS011;13829;48.990;8.346;2023-01-16T00:21:32;2.33;;;1.03;;
5054;SDS011;13829;48.990;8.346;2023-01-16T00:23:59;2.50;;;1.13;;
5054;SDS011;13829;48.990;8.346;2023-01-16T00:26:28;2.47;;;0.90;;
5054;SDS011;13829;48.990;8.346;2023-01-16T00:28:55;1.77;;;1.03;;
5054;SDS011;13829;48.990;8.346;2023-01-16T00:31:22;3.83;;;1.43;;
5054;SDS011;13829;48.990;8.346;2023-01-16T00:33:49;3.03;;;1.27;;
5054;SDS011;13829;48.990;8.346;2023-01-16T00:36:16;3.60;;;1.00;;
5054;SDS011;13829;48.990;8.346;2023-01-16T00:38:43;2.10;;;0.93;;
5054;SDS011;13829;48.990;8.346;2023-01-16T00:41:10;2.77;;;1.07;;
5054;SDS011;13829;48.990;8.346;2023-01-16T00:43:38;2.70;;;1.40;;
5054;SDS011;13829;48.990;8.346;2023-01-16T00:46:05;3.67;;;1.13;;
5054;SDS011;13829;48.990;8.346;2023-01-16T00:48:32;2.33;;;1.10;;
5054;SDS011;13829;48.990;8.346;2023-01-16T00:50:59;4.13;;;1.37;;
5054;SDS011;13829;48.990;8.346;2023-01-16T00:53:26;3.23;;;1.20;;
5054;SDS011;13829;48.990;8.346;2023-01-16T00:55:53;1.73;;;1.00;;
5054;SDS011;13829;48.990;8.346;2023-01-16T00:58:20;2.57;;;1.10;;
5054;SDS011;13829;48.990;8.346;2023-01-16T01:00:48;2.43;;;1.00;;
5054;SDS011;13829;48.990;8.346;2023-01-16T01:03:15;2.80;;;1.17;;
5054;SDS011;13829;48.990;8.346;2023-01-16T01:05:42;4.03;;;1.10;;
5054;SDS011;13829;48.990;8.346;2023-01-16T01:08:09;2.43;;;1.10;;
5054;SDS011;13829;48.990;8.346;2023-01-16T01:10:36;4.73;;;1.10;;
5054;SDS011;13829;48.990;8.346;2023-01-16T01:13:04;2.83;;;1.20;;
5054;SDS011;13829;48.990;8.346;2023-01-16T01:15:31;2.43;;;1.40;;
5054;SDS011;13829;48.990;8.346;2023-01-16T01:18:00;3.13;;;1.10;;
5054;SDS011;13829;48.990;8.346;2023-01-16T01:20:27;2.23;;;1.27;;
5054;SDS011;13829;48.990;8.346;2023-01-16T01:22:54;2.23;;;1.10;;
5054;SDS011;13829;48.990;8.346;2023-01-16T01:25:21;3.30;;;0.87;;
5054;SDS011;13829;48.990;8.346;2023-01-16T01:27:48;1.60;;;1.07;;
5054;SDS011;13829;48.990;8.346;2023-01-16T01:30:16;3.40;;;1.20;;
5054;SDS011;13829;48.990;8.346;2023-01-16T01:32:44;3.03;;;0.90;;
5054;SDS011;13829;48.990;8.346;2023-01-16T01:35:12;3.07;;;0.93;;
5054;SDS011;13829;48.990;8.346;2023-01-16T01:37:39;4.97;;;1.60;;
5054;SDS011;13829;48.990;8.346;2023-01-16T01:40:06;1.87;;;1.00;;
5054;SDS011;13829;48.990;8.346;2023-01-16T01:42:36;3.33;;;1.20;;
5054;SDS011;13829;48.990;8.346;2023-01-16T01:45:14;5.33;;;1.20;;
5054;SDS011;13829;48.990;8.346;2023-01-16T01:47:46;2.67;;;1.40;;
5054;SDS011;13829;48.990;8.346;2023-01-16T01:50:23;2.40;;;1.03;;
5054;SDS011;13829;48.990;8.346;2023-01-16T01:53:03;2.97;;;1.10;;
5054;SDS011;13829;48.990;8.346;2023-01-16T01:55:37;2.47;;;1.30;;
5054;SDS011;13829;48.990;8.346;2023-01-16T01:58:09;2.00;;;1.30;;
5054;SDS011;13829;48.990;8.346;2023-01-16T02:00:45;3.50;;;1.40;;
5054;SDS011;13829;48.990;8.346;2023-01-16T02:03:15;4.77;;;1.43;;
5054;SDS011;13829;48.990;8.346;2023-01-16T02:05:52;1.90;;;1.07;;
5054;SDS011;13829;48.990;8.346;2023-01-16T02:08:24;2.10;;;1.20;;
5054;SDS011;13829;48.990;8.346;2023-01-16T02:10:59;2.73;;;1.13;;
5054;SDS011;13829;48.990;8.346;2023-01-16T02:13:33;3.17;;;1.30;;
5054;SDS011;13829;48.990;8.346;2023-01-16T02:16:03;3.17;;;1.47;;
5054;SDS011;13829;48.990;8.346;2023-01-16T02:18:48;1.97;;;1.20;;
5054;SDS011;13829;48.990;8.346;2023-01-16T02:21:41;2.10;;;1.10;;
5054;SDS011;13829;48.990;8.346;2023-01-16T02:24:57;4.03;;;1.30;;
5054;SDS011;13829;48.990;8.346;2023-01-16T02:27:58;1.60;;;1.10;;
5054;SDS011;13829;48.990;8.346;2023-01-16T02:31:03;4.60;;;1.53;;
5054;SDS011;13829;48.990;8.346;2023-01-16T02:34:01;1.67;;;1.10;;
5054;SDS011;13829;48.990;8.346;2023-01-16T02:36:47;4.10;;;1.10;;
5054;SDS011;13829;48.990;8.346;2023-01-16T02:39:32;2.07;;;0.97;;
5054;SDS011;13829;48.990;8.346;2023-01-16T02:42:10;4.13;;;1.20;;
5054;SDS011;13829;48.990;8.346;2023-01-16T02:44:48;1.53;;;1.03;;
5054;SDS011;13829;48.990;8.346;2023-01-16T02:47:29;2.57;;;0.83;;
5054;SDS011;13829;48.990;8.346;2023-01-16T02:50:07;2.00;;;1.00;;
5054;SDS011;13829;48.990;8.346;2023-01-16T02:52:44;4.13;;;1.17;;
5054;SDS011;13829;48.990;8.346;2023-01-16T02:55:20;3.77;;;1.13;;
5054;SDS011;13829;48.990;8.346;2023-01-16T02:57:55;1.83;;;1.00;;
5054;SDS011;13829;48.990;8.346;2023-01-16T03:00:26;3.23;;;1.30;;
5054;SDS011;13829;48.990;8.346;2023-01-16T03:02:57;1.47;;;1.03;;
5054;SDS011;13829;48.990;8.346;2023-01-16T03:05:24;1.40;;;1.30;;
5054;SDS011;13829;48.990;8.346;2023-01-16T03:08:01;2.13;;;0.90;;
5054;SDS011;13829;48.990;8.346;2023-01-16T03:10:53;2.90;;;1.13;;
5054;SDS011;13829;48.990;8.346;2023-01-16T03:13:45;2.00;;;1.00;;
5054;SDS011;13829;48.990;8.346;2023-01-16T03:16:43;2.67;;;0.97;;
5054;SDS011;13829;48.990;8.346;2023-01-16T03:19:29;4.00;;;1.10;;
5054;SDS011;13829;48.990;8.346;2023-01-16T03:22:11;2.83;;;0.97;;
5054;SDS011;13829;48.990;8.346;2023-01-16T03:24:51;3.57;;;1.13;;
5054;SDS011;13829;48.990;8.346;2023-01-16T03:27:34;2.77;;;1.17;;
5054;SDS011;13829;48.990;8.346;2023-01-16T03:30:18;3.00;;;1.50;;
5054;SDS011;13829;48.990;8.346;2023-01-16T03:32:56;4.13;;;1.20;;
5054;SDS011;13829;48.990;8.346;2023-01-16T03:35:32;2.80;;;1.27;;
5054;SDS011;13829;48.990;8.346;2023-01-16T03:38:06;7.13;;;1.27;;
5054;SDS011;13829;48.990;8.346;2023-01-16T03:40:39;3.03;;;1.23;;
5054;SDS011;13829;48.990;8.346;2023-01-16T03:43:11;4.63;;;1.60;;
5054;SDS011;13829;48.990;8.346;2023-01-16T03:45:44;3.60;;;1.33;;
5054;SDS011;13829;48.990;8.346;2023-01-16T03:48:19;5.27;;;1.60;;
5054;SDS011;13829;48.990;8.346;2023-01-16T03:50:58;2.80;;;1.37;;
5054;SDS011;13829;48.990;8.346;2023-01-16T03:53:32;3.00;;;1.30;;
5054;SDS011;13829;48.990;8.346;2023-01-16T03:56:11;4.57;;;1.70;;
5054;SDS011;13829;48.990;8.346;2023-01-16T03:58:46;2.73;;;1.47;;
5054;SDS011;13829;48.990;8.346;2023-01-16T04:01:18;5.27;;;1.40;;
5054;SDS011;13829;48.990;8.346;2023-01-16T04:03:54;4.43;;;2.37;;
5054;SDS011;13829;48.990;8.346;2023-01-16T04:06:31;3.23;;;1.30;;
5054;SDS011;13829;48.990;8.346;2023-01-16T04:09:08;4.07;;;1.60;;
5054;SDS011;13829;48.990;8.346;2023-01-16T04:11:42;4.53;;;1.50;;
5054;SDS011;13829;48.990;8.346;2023-01-16T04:14:15;5.27;;;1.73;;
5054;SDS011;13829;48.990;8.346;2023-01-16T04:16:45;3.67;;;1.13;;
5054;SDS011;13829;48.990;8.346;2023-01-16T04:19:13;2.20;;;0.93;;
5054;SDS011;13829;48.990;8.346;2023-01-16T04:21:44;2.43;;;1.00;;
5054;SDS011;13829;48.990;8.346;2023-01-16T04:24:12;2.23;;;1.13;;
5054;SDS011;13829;48.990;8.346;2023-01-16T04:26:39;3.73;;;0.90;;
5054;SDS011;13829;48.990;8.346;2023-01-16T04:29:06;3.17;;;0.80;;
5054;SDS011;13829;48.990;8.346;2023-01-16T04:31:33;3.07;;;1.10;;
5054;SDS011;13829;48.990;8.346;2023-01-16T04:34:00;3.07;;;1.20;;
5054;SDS011;13829;48.990;8.346;2023-01-16T04:36:27;5.80;;;1.60;;
5054;SDS011;13829;48.990;8.346;2023-01-16T04:38:57;2.27;;;0.77;;
5054;SDS011;13829;48.990;8.346;2023-01-16T04:41:24;1.90;;;0.80;;
5054;SDS011;13829;48.990;8.346;2023-01-16T04:44:04;2.87;;;1.03;;
5054;SDS011;13829;48.990;8.346;2023-01-16T04:46:33;3.23;;;0.93;;
5054;SDS011;13829;48.990;8.346;2023-01-16T04:49:02;4.20;;;1.10;;
5054;SDS011;13829;48.990;8.346;2023-01-16T04:51:29;2.23;;;1.00;;
5054;SDS011;13829;48.990;8.346;2023-01-16T04:53:57;4.10;;;1.10;;
5054;SDS011;13829;48.990;8.346;2023-01-16T04:56:24;2.10;;;1.00;;
5054;SDS011;13829;48.990;8.346;2023-01-16T04:58:51;2.23;;;1.10;;
5054;SDS011;13829;48.990;8.346;2023-01-16T05:01:20;2.77;;;1.00;;
5054;SDS011;13829;48.990;8.346;2023-01-16T05:03:48;1.43;;;0.70;;
5054;SDS011;13829;48.990;8.346;2023-01-16T05:06:16;2.43;;;0.90;;
5054;SDS011;13829;48.990;8.346;2023-01-16T05:08:43;1.23;;;0.70;;
5054;SDS011;13829;48.990;8.346;2023-01-16T05:11:11;2.50;;;1.20;;
5054;SDS011;13829;48.990;8.346;2023-01-16T05:13:38;3.07;;;0.77;;
5054;SDS011;13829;48.990;8.346;2023-01-16T05:16:06;2.63;;;1.00;;
5054;SDS011;13829;48.990;8.346;2023-01-16T05:18:33;3.23;;;1.10;;
5054;SDS011;13829;48.990;8.346;2023-01-16T05:21:00;3.50;;;1.20;;
5054;SDS011;13829;48.990;8.346;2023-01-16T05:23:30;2.73;;;1.23;;
5054;SDS011;13829;48.990;8.346;2023-01-16T05:25:58;1.87;;;0.80;;
5054;SDS011;13829;48.990;8.346;2023-01-16T05:28:26;0.93;;;0.67;;
5054;SDS011;13829;48.990;8.346;2023-01-16T05:30:53;4.33;;;0.93;;
5054;SDS011;13829;48.990;8.346;2023-01-16T05:33:20;4.47;;;1.30;;
5054;SDS011;13829;48.990;8.346;2023-01-16T05:35:47;3.33;;;1.00;;
5054;SDS011;13829;48.990;8.346;2023-01-16T05:38:15;3.50;;;1.17;;
5054;SDS011;13829;48.990;8.346;2023-01-16T05:40:43;1.77;;;1.03;;
5054;SDS011;13829;48.990;8.346;2023-01-16T05:43:10;3.13;;;1.10;;
5054;SDS011;13829;48.990;8.346;2023-01-16T05:45:39;3.43;;;1.30;;
5054;SDS011;13829;48.990;8.346;2023-01-16T05:48:06;2.07;;;1.00;;
5054;SDS011;13829;48.990;8.346;2023-01-16T05:50:33;2.10;;;1.20;;
5054;SDS011;13829;48.990;8.346;2023-01-16T05:53:00;2.20;;;1.20;;
5054;SDS011;13829;48.990;8.346;2023-01-16T05:55:27;4.37;;;1.40;;
5054;SDS011;13829;48.990;8.346;2023-01-16T05:57:54;3.37;;;1.33;;
5054;SDS011;13829;48.990;8.346;2023-01-16T06:00:21;2.80;;;1.33;;
5054;SDS011;13829;48.990;8.346;2023-01-16T06:02:50;4.37;;;2.00;;
5054;SDS011;13829;48.990;8.346;2023-01-16T06:05:17;4.23;;;2.67;;
5054;SDS011;13829;48.990;8.346;2023-01-16T06:07:43;4.60;;;2.03;;
5054;SDS011;13829;48.990;8.346;2023-01-16T06:10:10;4.57;;;2.40;;
5054;SDS011;13829;48.990;8.346;2023-01-16T06:12:38;5.47;;;3.70;;
5054;SDS011;13829;48.990;8.346;2023-01-16T06:15:06;4.07;;;2.37;;
5054;SDS011;13829;48.990;8.346;2023-01-16T06:17:33;4.17;;;1.70;;
5054;SDS011;13829;48.990;8.346;2023-01-16T06:20:02;2.20;;;1.30;;
5054;SDS011;13829;48.990;8.346;2023-01-16T06:22:29;1.97;;;1.40;;
5054;SDS011;13829;48.990;8.346;2023-01-16T06:24:56;4.03;;;1.30;;
5054;SDS011;13829;48.990;8.346;2023-01-16T06:27:23;6.73;;;2.23;;
5054;SDS011;13829;48.990;8.346;2023-01-16T06:29:50;3.80;;;1.40;;
5054;SDS011;13829;48.990;8.346;2023-01-16T06:32:17;2.67;;;1.50;;
5054;SDS011;13829;48.990;8.346;2023-01-16T06:34:44;2.17;;;1.30;;
5054;SDS011;13829;48.990;8.346;2023-01-16T06:37:12;2.63;;;1.63;;
5054;SDS011;13829;48.990;8.346;2023-01-16T06:39:39;2.53;;;1.67;;
5054;SDS011;13829;48.990;8.346;2023-01-16T06:42:06;4.20;;;1.77;;
5054;SDS011;13829;48.990;8.346;2023-01-16T06:44:34;2.90;;;1.50;;
5054;SDS011;13829;48.990;8.346;2023-01-16T06:47:01;3.43;;;1.90;;
5054;SDS011;13829;48.990;8.346;2023-01-16T06:49:29;4.53;;;1.97;;
5054;SDS011;13829;48.990;8.346;2023-01-16T06:51:56;2.67;;;1.70;;
5054;SDS011;13829;48.990;8.346;2023-01-16T06:54:26;2.40;;;1.77;;
5054;SDS011;13829;48.990;8.346;2023-01-16T06:56:53;4.37;;;1.60;;
5054;SDS011;13829;48.990;8.346;2023-01-16T06:59:20;5.57;;;2.93;;
5054;SDS011;13829;48.990;8.346;2023-01-16T07:01:46;3.03;;;1.40;;
5054;SDS011;13829;48.990;8.346;2023-01-16T07:04:13;3.73;;;1.80;;
5054;SDS011;13829;48.990;8.346;2023-01-16T07:06:41;3.30;;;1.60;;
5054;SDS011;13829;48.990;8.346;2023-01-16T07:09:08;1.83;;;1.30;;
5054;SDS011;13829;48.990;8.346;2023-01-16T07:11:37;3.07;;;1.80;;
5054;SDS011;13829;48.990;8.346;2023-01-16T07:14:04;2.53;;;1.73;;
5054;SDS011;13829;48.990;8.346;2023-01-16T07:16:48;2.93;;;1.93;;
5054;SDS011;13829;48.990;8.346;2023-01-16T07:19:33;5.43;;;2.73;;
5054;SDS011;13829;48.990;8.346;2023-01-16T07:22:17;2.03;;;1.70;;
5054;SDS011;13829;48.990;8.346;2023-01-16T07:25:09;4.77;;;1.77;;
5054;SDS011;13829;48.990;8.346;2023-01-16T07:27:42;2.77;;;1.30;;
5054;SDS011;13829;48.990;8.346;2023-01-16T07:30:14;3.33;;;1.33;;
5054;SDS011;13829;48.990;8.346;2023-01-16T07:32:42;4.10;;;2.07;;
5054;SDS011;13829;48.990;8.346;2023-01-16T07:35:10;4.43;;;2.50;;
5054;SDS011;13829;48.990;8.346;2023-01-16T07:37:37;3.07;;;2.20;;
5054;SDS011;13829;48.990;8.346;2023-01-16T07:40:05;1.70;;;1.13;;
5054;SDS011;13829;48.990;8.346;2023-01-16T07:42:33;2.60;;;1.10;;
5054;SDS011;13829;48.990;8.346;2023-01-16T07:45:02;2.43;;;1.67;;
5054;SDS011;13829;48.990;8.346;2023-01-16T07:47:29;3.33;;;1.10;;
5054;SDS011;13829;48.990;8.346;2023-01-16T07:49:56;4.70;;;2.27;;
5054;SDS011;13829;48.990;8.346;2023-01-16T07:52:23;3.03;;;2.00;;
5054;SDS011;13829;48.990;8.346;2023-01-16T07:54:50;2.60;;;2.40;;
5054;SDS011;13829;48.990;8.346;2023-01-16T07:57:17;6.23;;;2.53;;
5054;SDS011;13829;48.990;8.346;2023-01-16T07:59:44;2.77;;;1.37;;
5054;SDS011;13829;48.990;8.346;2023-01-16T08:02:12;2.53;;;1.10;;
5054;SDS011;13829;48.990;8.346;2023-01-16T08:04:39;1.77;;;1.37;;
5054;SDS011;13829;48.990;8.346;2023-01-16T08:07:06;2.43;;;1.50;;
5054;SDS011;13829;48.990;8.346;2023-01-16T08:09:33;3.27;;;2.07;;
5054;SDS011;13829;48.990;8.346;2023-01-16T08:12:00;3.53;;;1.77;;
5054;SDS011;13829;48.990;8.346;2023-01-16T08:14:27;2.77;;;1.30;;
5054;SDS011;13829;48.990;8.346;2023-01-16T08:16:54;2.20;;;1.40;;
5054;SDS011;13829;48.990;8.346;2023-01-16T08:19:23;1.80;;;1.60;;
5054;SDS011;13829;48.990;8.346;2023-01-16T08:21:50;1.67;;;1.10;;
5054;SDS011;13829;48.990;8.346;2023-01-16T08:24:16;2.90;;;1.50;;
5054;SDS011;13829;48.990;8.346;2023-01-16T08:26:43;4.83;;;1.23;;
5054;SDS011;13829;48.990;8.346;2023-01-16T08:29:10;1.87;;;1.00;;
5054;SDS011;13829;48.990;8.346;2023-01-16T08:31:37;1.77;;;1.57;;
5054;SDS011;13829;48.990;8.346;2023-01-16T08:34:04;3.23;;;1.10;;
5054;SDS011;13829;48.990;8.346;2023-01-16T08:36:33;1.90;;;0.77;;
5054;SDS011;13829;48.990;8.346;2023-01-16T08:39:00;1.80;;;1.13;;
5054;SDS011;13829;48.990;8.346;2023-01-16T08:41:27;1.53;;;0.80;;
5054;SDS011;13829;48.990;8.346;2023-01-16T08:44:12;3.53;;;1.00;;
5054;SDS011;13829;48.990;8.346;2023-01-16T08:46:58;1.07;;;0.77;;
5054;SDS011;13829;48.990;8.346;2023-01-16T08:49:45;0.60;;;0.60;;
5054;SDS011;13829;48.990;8.346;2023-01-16T08:52:33;2.03;;;0.83;;
5054;SDS011;13829;48.990;8.346;2023-01-16T08:55:02;0.87;;;0.63;;
5054;SDS011;13829;48.990;8.346;2023-01-16T08:57:29;1.60;;;0.90;;
5054;SDS011;13829;48.990;8.346;2023-01-16T08:59:57;1.80;;;1.20;;
5054;SDS011;13829;48.990;8.346;2023-01-16T09:02:24;1.27;;;0.80;;
5054;SDS011;13829;48.990;8.346;2023-01-16T09:04:53;1.63;;;0.60;;
5054;SDS011;13829;48.990;8.346;2023-01-16T09:07:20;1.20;;;0.40;;
5054;SDS011;13829;48.990;8.346;2023-01-16T09:09:49;1.90;;;0.50;;
5054;SDS011;13829;48.990;8.346;2023-01-16T09:12:16;0.50;;;0.30;;
5054;SDS011;13829;48.990;8.346;2023-01-16T09:15:01;0.43;;;0.43;;
5054;SDS011;13829;48.990;8.346;2023-01-16T09:17:30;1.00;;;0.40;;
5054;SDS011;13829;48.990;8.346;2023-01-16T09:19:57;1.87;;;0.73;;
5054;SDS011;13829;48.990;8.346;2023-01-16T09:22:25;0.73;;;0.40;;
5054;SDS011;13829;48.990;8.346;2023-01-16T09:24:54;1.77;;;0.70;;
5054;SDS011;13829;48.990;8.346;2023-01-16T09:27:21;0.97;;;0.60;;
5054;SDS011;13829;48.990;8.346;2023-01-16T09:29:49;0.77;;;0.60;;
5054;SDS011;13829;48.990;8.346;2023-01-16T09:32:16;1.20;;;0.60;;
5054;SDS011;13829;48.990;8.346;2023-01-16T09:34:44;0.90;;;0.40;;
5054;SDS011;13829;48.990;8.346;2023-01-16T09:37:11;1.23;;;0.50;;
5054;SDS011;13829;48.990;8.346;2023-01-16T09:39:39;2.77;;;1.17;;
5054;SDS011;13829;48.990;8.346;2023-01-16T09:45:25;1.90;;;1.20;;
5054;SDS011;13829;48.990;8.346;2023-01-16T09:47:58;1.13;;;0.50;;
5054;SDS011;13829;48.990;8.346;2023-01-16T09:50:32;2.77;;;0.70;;
5054;SDS011;13829;48.990;8.346;2023-01-16T09:53:05;1.37;;;0.77;;
5054;SDS011;13829;48.990;8.346;2023-01-16T09:55:59;0.73;;;0.60;;
5054;SDS011;13829;48.990;8.346;2023-01-16T09:58:47;0.70;;;0.63;;
5054;SDS011;13829;48.990;8.346;2023-01-16T10:01:27;0.30;;;0.30;;
5054;SDS011;13829;48.990;8.346;2023-01-16T10:04:06;1.13;;;0.60;;
5054;SDS011;13829;48.990;8.346;2023-01-16T10:06:47;0.53;;;0.47;;
5054;SDS011;13829;48.990;8.346;2023-01-16T10:09:30;1.10;;;0.50;;
5054;SDS011;13829;48.990;8.346;2023-01-16T10:12:08;1.07;;;0.60;;
5054;SDS011;13829;48.990;8.346;2023-01-16T10:14:46;0.70;;;0.50;;
5054;SDS011;13829;48.990;8.346;2023-01-16T10:17:32;0.60;;;0.47;;
5054;SDS011;13829;48.990;8.346;2023-01-16T10:20:16;0.83;;;0.50;;
5054;SDS011;13829;48.990;8.346;2023-01-16T10:23:10;0.50;;;0.50;;
5054;SDS011;13829;48.990;8.346;2023-01-16T10:25:57;0.90;;;0.40;;
5054;SDS011;13829;48.990;8.346;2023-01-16T10:28:36;1.47;;;0.80;;
5054;SDS011;13829;48.990;8.346;2023-01-16T10:31:20;1.20;;;0.40;;
5054;SDS011;13829;48.990;8.346;2023-01-16T10:33:55;1.87;;;0.60;;
5054;SDS011;13829;48.990;8.346;2023-01-16T10:36:30;1.40;;;0.60;;
5054;SDS011;13829;48.990;8.346;2023-01-16T10:39:03;2.17;;;0.70;;
5054;SDS011;13829;48.990;8.346;2023-01-16T10:41:31;0.57;;;0.50;;
5054;SDS011;13829;48.990;8.346;2023-01-16T10:44:23;0.43;;;0.43;;
5054;SDS011;13829;48.990;8.346;2023-01-16T10:47:18;1.10;;;0.87;;
5054;SDS011;13829;48.990;8.346;2023-01-16T10:50:06;0.90;;;0.60;;
5054;SDS011;13829;48.990;8.346;2023-01-16T10:52:35;1.30;;;1.20;;
5054;SDS011;13829;48.990;8.346;2023-01-16T10:55:04;0.60;;;0.60;;
5054;SDS011;13829;48.990;8.346;2023-01-16T10:57:34;0.90;;;0.60;;
5054;SDS011;13829;48.990;8.346;2023-01-16T11:00:11;0.70;;;0.50;;
5054;SDS011;13829;48.990;8.346;2023-01-16T11:02:46;0.53;;;0.53;;
5054;SDS011;13829;48.990;8.346;2023-01-16T11:05:24;0.40;;;0.40;;
5054;SDS011;13829;48.990;8.346;2023-01-16T11:07:55;1.70;;;0.50;;
5054;SDS011;13829;48.990;8.346;2023-01-16T11:10:32;0.90;;;0.50;;
5054;SDS011;13829;48.990;8.346;2023-01-16T11:12:59;0.37;;;0.37;;
5054;SDS011;13829;48.990;8.346;2023-01-16T11:15:59;2.10;;;0.30;;
5054;SDS011;13829;48.990;8.346;2023-01-16T11:18:46;0.83;;;0.60;;
5054;SDS011;13829;48.990;8.346;2023-01-16T11:21:15;0.50;;;0.37;;
5054;SDS011;13829;48.990;8.346;2023-01-16T11:23:56;0.43;;;0.40;;
5054;SDS011;13829;48.990;8.346;2023-01-16T11:26:25;0.40;;;0.40;;
5054;SDS011;13829;48.990;8.346;2023-01-16T11:28:54;1.13;;;0.70;;
5054;SDS011;13829;48.990;8.346;2023-01-16T11:31:24;1.93;;;0.70;;
5054;SDS011;13829;48.990;8.346;2023-01-16T11:33:58;0.70;;;0.40;;
5054;SDS011;13829;48.990;8.346;2023-01-16T11:36:30;1.80;;;0.70;;
5054;SDS011;13829;48.990;8.346;2023-01-16T11:39:00;0.77;;;0.40;;
5054;SDS011;13829;48.990;8.346;2023-01-16T11:41:28;0.40;;;0.40;;
5054;SDS011;13829;48.990;8.346;2023-01-16T11:44:05;0.30;;;0.30;;
5054;SDS011;13829;48.990;8.346;2023-01-16T11:46:59;0.40;;;0.40;;
5054;SDS011;13829;48.990;8.346;2023-01-16T11:49:30;0.27;;;0.23;;
5054;SDS011;13829;48.990;8.346;2023-01-16T11:52:02;0.30;;;0.30;;
5054;SDS011;13829;48.990;8.346;2023-01-16T11:54:30;0.30;;;0.30;;
5054;SDS011;13829;48.990;8.346;2023-01-16T11:57:05;0.40;;;0.40;;
5054;SDS011;13829;48.990;8.346;2023-01-16T12:00:06;0.40;;;0.30;;
5054;SDS011;13829;48.990;8.346;2023-01-16T12:06:09;0.67;;;0.40;;
5054;SDS011;13829;48.990;8.346;2023-01-16T12:09:03;2.17;;;0.90;;
5054;SDS011;13829;48.990;8.346;2023-01-16T12:11:53;0.40;;;0.40;;
5054;SDS011;13829;48.990;8.346;2023-01-16T12:15:01;0.30;;;0.30;;
5054;SDS011;13829;48.990;8.346;2023-01-16T12:17:47;0.30;;;0.30;;
5054;SDS011;13829;48.990;8.346;2023-01-16T12:20:33;0.27;;;0.27;;
5054;SDS011;13829;48.990;8.346;2023-01-16T12:23:23;0.53;;;0.40;;
5054;SDS011;13829;48.990;8.346;2023-01-16T12:26:14;0.57;;;0.40;;
5054;SDS011;13829;48.990;8.346;2023-01-16T12:28:54;0.37;;;0.37;;
5054;SDS011;13829;48.990;8.346;2023-01-16T12:31:44;0.40;;;0.40;;
5054;SDS011;13829;48.990;8.346;2023-01-16T12:34:45;0.53;;;0.30;;
5054;SDS011;13829;48.990;8.346;2023-01-16T12:37:44;0.43;;;0.30;;
5054;SDS011;13829;48.990;8.346;2023-01-16T12:41:00;0.20;;;0.20;;
5054;SDS011;13829;48.990;8.346;2023-01-16T12:47:04;0.30;;;0.30;;
5054;SDS011;13829;48.990;8.346;2023-01-16T12:50:01;0.30;;;0.30;;
5054;SDS011;13829;48.990;8.346;2023-01-16T12:52:48;0.30;;;0.30;;
5054;SDS011;13829;48.990;8.346;2023-01-16T12:55:37;0.93;;;0.60;;
5054;SDS011;13829;48.990;8.346;2023-01-16T12:58:19;0.73;;;0.40;;
5054;SDS011;13829;48.990;8.346;2023-01-16T13:00:53;0.23;;;0.23;;
5054;SDS011;13829;48.990;8.346;2023-01-16T13:03:37;1.73;;;0.50;;
5054;SDS011;13829;48.990;8.346;2023-01-16T13:06:20;0.40;;;0.30;;
5054;SDS011;13829;48.990;8.346;2023-01-16T13:09:09;0.30;;;0.30;;
5054;SDS011;13829;48.990;8.346;2023-01-16T13:11:49;0.80;;;0.50;;
5054;SDS011;13829;48.990;8.346;2023-01-16T13:14:46;0.33;;;0.33;;
5054;SDS011;13829;48.990;8.346;2023-01-16T13:17:21;0.93;;;0.40;;
5054;SDS011;13829;48.990;8.346;2023-01-16T13:19:53;2.00;;;0.40;;
5054;SDS011;13829;48.990;8.346;2023-01-16T13:22:21;1.07;;;0.37;;
5054;SDS011;13829;48.990;8.346;2023-01-16T13:24:57;0.77;;;0.47;;
5054;SDS011;13829;48.990;8.346;2023-01-16T13:27:35;0.40;;;0.40;;
5054;SDS011;13829;48.990;8.346;2023-01-16T13:30:11;0.73;;;0.40;;
5054;SDS011;13829;48.990;8.346;2023-01-16T13:32:42;0.63;;;0.40;;
5054;SDS011;13829;48.990;8.346;2023-01-16T13:35:16;1.13;;;0.40;;
5054;SDS011;13829;48.990;8.346;2023-01-16T13:38:10;0.40;;;0.27;;
5054;SDS011;13829;48.990;8.346;2023-01-16T13:41:08;1.10;;;0.40;;
5054;SDS011;13829;48.990;8.346;2023-01-16T13:43:42;0.40;;;0.30;;
5054;SDS011;13829;48.990;8.346;2023-01-16T13:46:35;0.97;;;0.60;;
5054;SDS011;13829;48.990;8.346;2023-01-16T13:49:03;0.20;;;0.20;;
5054;SDS011;13829;48.990;8.346;2023-01-16T13:51:39;1.20;;;0.40;;
5054;SDS011;13829;48.990;8.346;2023-01-16T13:54:11;0.50;;;0.40;;
5054;SDS011;13829;48.990;8.346;2023-01-16T13:56:47;2.47;;;0.97;;
5054;SDS011;13829;48.990;8.346;2023-01-16T13:59:28;0.50;;;0.30;;
5054;SDS011;13829;48.990;8.346;2023-01-16T14:05:17;2.07;;;1.00;;
5054;SDS011;13829;48.990;8.346;2023-01-16T14:07:50;1.23;;;0.40;;
5054;SDS011;13829;48.990;8.346;2023-01-16T14:11:04;1.03;;;0.40;;
5054;SDS011;13829;48.990;8.346;2023-01-16T14:13:50;0.87;;;0.50;;
5054;SDS011;13829;48.990;8.346;2023-01-16T14:17:13;0.73;;;0.47;;
5054;SDS011;13829;48.990;8.346;2023-01-16T14:19:51;2.40;;;0.80;;
5054;SDS011;13829;48.990;8.346;2023-01-16T14:22:24;0.43;;;0.30;;
5054;SDS011;13829;48.990;8.346;2023-01-16T14:25:21;1.20;;;0.40;;
5054;SDS011;13829;48.990;8.346;2023-01-16T14:27:51;1.57;;;0.30;;
5054;SDS011;13829;48.990;8.346;2023-01-16T14:30:23;1.37;;;0.47;;
5054;SDS011;13829;48.990;8.346;2023-01-16T14:32:55;0.97;;;0.40;;
5054;SDS011;13829;48.990;8.346;2023-01-16T14:35:28;0.77;;;0.57;;
5054;SDS011;13829;48.990;8.346;2023-01-16T14:38:06;2.53;;;0.93;;
5054;SDS011;13829;48.990;8.346;2023-01-16T14:40:46;1.87;;;0.50;;
5054;SDS011;13829;48.990;8.346;2023-01-16T14:43:37;0.30;;;0.30;;
5054;SDS011;13829;48.990;8.346;2023-01-16T14:46:52;1.50;;;0.50;;
5054;SDS011;13829;48.990;8.346;2023-01-16T14:50:00;0.43;;;0.40;;
5054;SDS011;13829;48.990;8.346;2023-01-16T14:53:12;0.90;;;0.70;;
5054;SDS011;13829;48.990;8.346;2023-01-16T14:56:04;0.60;;;0.47;;
5054;SDS011;13829;48.990;8.346;2023-01-16T14:58:41;1.40;;;0.57;;
5054;SDS011;13829;48.990;8.346;2023-01-16T15:01:16;0.33;;;0.33;;
5054;SDS011;13829;48.990;8.346;2023-01-16T15:04:09;1.47;;;0.60;;
5054;SDS011;13829;48.990;8.346;2023-01-16T15:06:41;0.90;;;0.57;;
5054;SDS011;13829;48.990;8.346;2023-01-16T15:09:16;1.27;;;0.63;;
5054;SDS011;13829;48.990;8.346;2023-01-16T15:11:47;1.60;;;0.73;;
5054;SDS011;13829;48.990;8.346;2023-01-16T15:14:21;0.40;;;0.40;;
5054;SDS011;13829;48.990;8.346;2023-01-16T15:16:52;1.57;;;0.53;;
5054;SDS011;13829;48.990;8.346;2023-01-16T15:19:58;0.60;;;0.60;;
5054;SDS011;13829;48.990;8.346;2023-01-16T15:22:57;1.40;;;0.60;;
5054;SDS011;13829;48.990;8.346;2023-01-16T15:25:31;1.43;;;0.70;;
5054;SDS011;13829;48.990;8.346;2023-01-16T15:28:40;1.60;;;0.50;;
5054;SDS011;13829;48.990;8.346;2023-01-16T15:31:29;0.60;;;0.50;;
5054;SDS011;13829;48.990;8.346;2023-01-16T15:34:01;0.60;;;0.60;;
5054;SDS011;13829;48.990;8.346;2023-01-16T15:36:32;0.60;;;0.60;;
5054;SDS011;13829;48.990;8.346;2023-01-16T15:39:12;0.70;;;0.50;;
5054;SDS011;13829;48.990;8.346;2023-01-16T15:41:52;0.53;;;0.40;;
5054;SDS011;13829;48.990;8.346;2023-01-16T15:44:43;0.73;;;0.50;;
5054;SDS011;13829;48.990;8.346;2023-01-16T15:47:52;1.27;;;0.60;;
5054;SDS011;13829;48.990;8.346;2023-01-16T15:50:39;0.60;;;0.60;;
5054;SDS011;13829;48.990;8.346;2023-01-16T15:53:20;0.47;;;0.47;;
5054;SDS011;13829;48.990;8.346;2023-01-16T15:55:50;1.00;;;0.80;;
5054;SDS011;13829;48.990;8.346;2023-01-16T15:58:24;0.77;;;0.50;;
5054;SDS011;13829;48.990;8.346;2023-01-16T16:00:57;0.50;;;0.50;;
5054;SDS011;13829;48.990;8.346;2023-01-16T16:03:27;1.73;;;0.80;;